Fraserborg — PCJS — position and weather

sailwx.info

Track history (hours):
 
Tides and Currents Weather Stations Pressure Air Temp Water Temp Dewpoint Dewpoint Depression Visibility Wind Speed Wind Dir Waves Ship Positions

Fraserborg

Last reported at 2017-Sep-26 09:56 UTC. Time now 2017-Oct-18 05:43 UTC.
Position N 45°45' W 073°24'.
Warning: this ship's position is 21 days out of date.

Length 156 m; draft 7.6 m.

Type: Ship. MMSI: 245639000.

Date/timePositionNaut miles runAvg speedWind from/ knotsBaromVisibWave heightAir tempDewpointWater temp
2017-Sep-26 09:56N 45°45' W 073°24'12 0.7
2017-Sep-25 16:06N 45°34' W 073°30'3 8.1
2017-Sep-25 15:47N 45°32' W 073°32'2 6.2
2017-Sep-25 15:30N 45°30' W 073°31'1 0.9
2017-Sep-25 14:43N 45°30' W 073°31'0 2.1
2017-Sep-25 14:30N 45°29' W 073°31'1 2.7
2017-Sep-25 14:00N 45°28' W 073°30'3 5.9
2017-Sep-25 13:30N 45°25' W 073°31'2 4.4
2017-Sep-25 13:00N 45°24' W 073°34'0 0.3
2017-Sep-25 12:30N 45°24' W 073°34'1 2.2
2017-Sep-25 12:00N 45°24' W 073°36'3 5.1
2017-Sep-25 11:30N 45°24' W 073°39'2 4.7
2017-Sep-25 11:00N 45°25' W 073°42'510.3
2017-Sep-25 10:30N 45°22' W 073°49'510.7
2017-Sep-25 10:01N 45°19' W 073°55'0 0.5
2017-Sep-25 09:31N 45°19' W 073°55'1 1.6
2017-Sep-25 09:01N 45°18' W 073°56'0 0.0
2017-Sep-25 08:31N 45°18' W 073°56'0 0.7
2017-Sep-25 08:01N 45°18' W 073°56'2 4.7
2017-Sep-25 07:30N 45°16' W 073°57'510.5
2017-Sep-25 07:00N 45°13' W 074°04'611.3
2017-Sep-25 06:31N 45°14' W 074°12'1312.2
2017-Sep-25 05:26N 45°07' W 074°28'710.6
2017-Sep-25 04:48N 45°03' W 074°35'  
Track history (hours):
 
Tides and Currents Weather Stations Pressure Air Temp Water Temp Dewpoint Dewpoint Depression Visibility Wind Speed Wind Dir Waves Ship Positions

Fraserborg

Last reported at 2017-Sep-26 09:56 UTC. Time now 2017-Oct-18 05:43 UTC.
Position N 45°45' W 073°24'.
Warning: this ship's position is 21 days out of date.

Length 156 m; draft 7.6 m.

Type: Ship. MMSI: 245639000.

Date/timePositionNaut miles runAvg speedWind from/ knotsBaromVisibWave heightAir tempDewpointWater temp
2017-Sep-26 09:56N 45°45' W 073°24'12 0.7
2017-Sep-25 16:06N 45°34' W 073°30'3 8.1
2017-Sep-25 15:47N 45°32' W 073°32'2 6.2
2017-Sep-25 15:30N 45°30' W 073°31'1 0.9
2017-Sep-25 14:43N 45°30' W 073°31'0 2.1
2017-Sep-25 14:30N 45°29' W 073°31'1 2.7
2017-Sep-25 14:00N 45°28' W 073°30'3 5.9
2017-Sep-25 13:30N 45°25' W 073°31'2 4.4
2017-Sep-25 13:00N 45°24' W 073°34'0 0.3
2017-Sep-25 12:30N 45°24' W 073°34'1 2.2
2017-Sep-25 12:00N 45°24' W 073°36'3 5.1
2017-Sep-25 11:30N 45°24' W 073°39'2 4.7
2017-Sep-25 11:00N 45°25' W 073°42'510.3
2017-Sep-25 10:30N 45°22' W 073°49'510.7
2017-Sep-25 10:01N 45°19' W 073°55'0 0.5
2017-Sep-25 09:31N 45°19' W 073°55'1 1.6
2017-Sep-25 09:01N 45°18' W 073°56'0 0.0
2017-Sep-25 08:31N 45°18' W 073°56'0 0.7
2017-Sep-25 08:01N 45°18' W 073°56'2 4.7
2017-Sep-25 07:30N 45°16' W 073°57'510.5
2017-Sep-25 07:00N 45°13' W 074°04'611.3
2017-Sep-25 06:31N 45°14' W 074°12'1312.2
2017-Sep-25 05:26N 45°07' W 074°28'710.6
2017-Sep-25 04:48N 45°03' W 074°35'  

Dump ship's entire track history